createdAt,value
2018-08-03T00:00:07.324Z,22.88
2018-08-03T00:02:36.150Z,22.81
2018-08-03T00:05:04.961Z,22.86
2018-08-03T00:07:33.799Z,22.83
2018-08-03T00:10:02.663Z,22.82
2018-08-03T00:12:31.431Z,22.89
2018-08-03T00:15:00.377Z,22.89
2018-08-03T00:17:29.177Z,22.93
2018-08-03T00:19:57.989Z,22.90
2018-08-03T00:22:26.844Z,22.89
2018-08-03T00:24:55.662Z,22.89
2018-08-03T00:27:24.531Z,22.85
2018-08-03T00:29:53.345Z,22.83
2018-08-03T00:32:22.250Z,22.85
2018-08-03T00:34:51.125Z,22.95
2018-08-03T00:37:19.991Z,22.83
2018-08-03T00:39:48.807Z,22.80
2018-08-03T00:42:17.622Z,22.76
2018-08-03T00:44:46.661Z,22.67
2018-08-03T00:47:15.480Z,22.65
2018-08-03T00:49:44.280Z,22.62
2018-08-03T00:52:13.159Z,22.61
2018-08-03T00:54:41.957Z,22.60
2018-08-03T00:57:10.761Z,22.59
2018-08-03T00:59:39.637Z,22.64
2018-08-03T01:02:08.484Z,22.53
2018-08-03T01:04:37.465Z,22.51
2018-08-03T01:07:06.321Z,22.52
2018-08-03T01:09:35.164Z,22.49
2018-08-03T01:12:04.386Z,22.45
2018-08-03T01:14:33.184Z,22.47
2018-08-03T01:17:02.106Z,22.47
2018-08-03T01:19:30.980Z,22.51
2018-08-03T01:21:59.758Z,22.49
2018-08-03T01:24:28.651Z,22.43
2018-08-03T01:26:57.495Z,22.43
2018-08-03T01:29:26.489Z,22.41
2018-08-03T01:31:55.366Z,22.42
2018-08-03T01:34:24.233Z,22.38
2018-08-03T01:36:53.039Z,22.42
2018-08-03T01:39:21.915Z,22.32
2018-08-03T01:41:50.734Z,22.26
2018-08-03T01:44:19.650Z,22.28
2018-08-03T01:46:48.468Z,22.33
2018-08-03T01:49:17.315Z,22.31
2018-08-03T01:51:46.130Z,22.30
2018-08-03T01:54:14.943Z,22.34
2018-08-03T01:56:43.792Z,22.24
2018-08-03T01:59:12.685Z,22.21
2018-08-03T02:01:41.463Z,22.19
2018-08-03T02:04:10.380Z,22.19
2018-08-03T02:06:39.275Z,22.12
2018-08-03T02:09:09.340Z,22.11
2018-08-03T02:11:38.646Z,21.97
2018-08-03T02:14:07.504Z,21.96
2018-08-03T02:16:36.426Z,21.92
2018-08-03T02:19:05.301Z,22.03
2018-08-03T02:21:34.080Z,21.91
2018-08-03T02:24:02.903Z,21.96
2018-08-03T02:26:31.763Z,21.80
2018-08-03T02:29:00.561Z,21.72
2018-08-03T02:31:29.351Z,21.78
2018-08-03T02:33:58.201Z,21.85
2018-08-03T02:36:27.057Z,21.95
2018-08-03T02:38:55.897Z,21.96
2018-08-03T02:41:24.769Z,22.01
2018-08-03T02:43:53.663Z,22.21
2018-08-03T02:46:22.539Z,22.28
2018-08-03T02:48:51.352Z,22.08
2018-08-03T02:51:20.160Z,22.06
2018-08-03T02:53:49.003Z,21.90
2018-08-03T02:56:17.779Z,21.90
2018-08-03T02:58:46.593Z,21.81
2018-08-03T03:01:15.506Z,21.92
2018-08-03T03:03:44.369Z,21.95
2018-08-03T03:06:13.189Z,21.99
2018-08-03T03:08:42.070Z,21.96
2018-08-03T03:11:10.934Z,22.04
2018-08-03T03:13:39.827Z,22.33
2018-08-03T03:16:08.644Z,22.29
2018-08-03T03:18:38.727Z,22.26
2018-08-03T03:21:07.759Z,22.32
2018-08-03T03:23:36.641Z,22.41
2018-08-03T03:26:06.907Z,22.29
2018-08-03T03:28:35.697Z,22.49
2018-08-03T03:31:04.594Z,22.47
2018-08-03T03:33:33.568Z,22.72
2018-08-03T03:36:02.342Z,22.84
2018-08-03T03:38:31.172Z,22.82
2018-08-03T03:41:00.073Z,22.69
2018-08-03T03:43:28.926Z,22.70
2018-08-03T03:45:57.740Z,22.70
2018-08-03T03:48:26.604Z,22.58
2018-08-03T03:50:55.455Z,22.66
2018-08-03T03:53:24.304Z,22.85
2018-08-03T03:55:53.144Z,23.03
2018-08-03T03:58:21.972Z,22.97
2018-08-03T04:00:50.840Z,22.90
2018-08-03T04:03:19.783Z,23.01
2018-08-03T04:05:48.577Z,23.03
2018-08-03T04:08:17.504Z,23.15
2018-08-03T04:10:46.430Z,23.28
2018-08-03T04:13:15.264Z,23.48
2018-08-03T04:15:44.118Z,23.56
2018-08-03T04:18:20.302Z,23.54
2018-08-03T04:20:49.777Z,23.64
2018-08-03T04:23:19.038Z,23.70
2018-08-03T04:25:47.875Z,23.77
2018-08-03T04:28:16.715Z,23.88
2018-08-03T04:30:46.786Z,23.95
2018-08-03T04:33:15.589Z,23.76
2018-08-03T04:35:44.392Z,23.98
2018-08-03T04:38:13.252Z,24.20
2018-08-03T04:40:42.040Z,24.44
2018-08-03T04:43:12.273Z,24.62
2018-08-03T04:45:42.333Z,24.64
2018-08-03T04:48:11.240Z,24.66
2018-08-03T04:50:40.114Z,24.76
2018-08-03T04:53:08.961Z,24.94
2018-08-03T04:55:37.762Z,25.01
2018-08-03T04:58:06.612Z,25.02
2018-08-03T05:00:35.492Z,24.93
2018-08-03T05:03:04.356Z,24.87
2018-08-03T05:05:33.240Z,25.11
2018-08-03T05:08:02.123Z,25.27
2018-08-03T05:10:30.927Z,25.38
2018-08-03T05:12:59.756Z,25.48
2018-08-03T05:15:28.581Z,24.81
2018-08-03T05:17:57.361Z,24.83
2018-08-03T05:20:26.251Z,25.15
2018-08-03T05:22:55.199Z,24.84
2018-08-03T05:25:24.117Z,25.15
2018-08-03T05:27:52.955Z,25.48
2018-08-03T05:30:21.903Z,25.71
2018-08-03T05:32:50.799Z,25.61
2018-08-03T05:35:19.710Z,25.54
2018-08-03T05:37:48.522Z,25.53
2018-08-03T05:40:17.488Z,25.73
2018-08-03T05:42:46.326Z,25.83
2018-08-03T05:45:15.325Z,25.95
2018-08-03T05:47:44.201Z,26.03
2018-08-03T05:50:13.060Z,25.82
2018-08-03T05:52:41.835Z,25.59
2018-08-03T05:55:10.741Z,25.74
2018-08-03T05:57:39.586Z,25.63
2018-08-03T06:00:08.510Z,25.86
2018-08-03T06:02:37.371Z,26.11
2018-08-03T06:05:07.267Z,26.09
2018-08-03T06:07:36.712Z,26.30
2018-08-03T06:10:06.916Z,26.57
2018-08-03T06:12:35.664Z,26.35
2018-08-03T06:15:05.473Z,26.79
2018-08-03T06:17:34.319Z,27.08
2018-08-03T06:20:03.208Z,26.99
2018-08-03T06:22:32.072Z,27.49
2018-08-03T06:25:02.423Z,27.77
2018-08-03T06:27:31.289Z,27.97
2018-08-03T06:30:00.130Z,28.09
2018-08-03T06:32:30.238Z,28.40
2018-08-03T06:34:59.112Z,28.33
2018-08-03T06:37:46.515Z,28.43
2018-08-03T06:40:18.810Z,28.38
2018-08-03T06:42:52.285Z,28.16
2018-08-03T06:45:23.244Z,28.66
2018-08-03T06:48:00.030Z,28.78
2018-08-03T06:50:33.806Z,29.08
2018-08-03T06:53:15.760Z,29.35
2018-08-03T06:55:49.689Z,29.50
2018-08-03T06:58:29.312Z,29.89
2018-08-03T07:01:02.244Z,29.99
2018-08-03T07:03:36.994Z,29.91
2018-08-03T07:06:11.258Z,30.49
2018-08-03T07:08:44.522Z,30.42
2018-08-03T07:11:17.866Z,30.14
2018-08-03T07:13:51.704Z,30.34
2018-08-03T07:16:25.482Z,29.85
2018-08-03T07:19:00.993Z,29.55
2018-08-03T07:21:35.617Z,30.11
2018-08-03T07:24:11.241Z,29.53
2018-08-03T07:26:43.138Z,29.73
2018-08-03T07:29:16.908Z,29.85
2018-08-03T07:31:53.239Z,29.56
2018-08-03T07:34:28.618Z,29.75
2018-08-03T07:37:01.974Z,29.14
2018-08-03T07:39:34.106Z,29.11
2018-08-03T07:42:10.369Z,29.55
2018-08-03T07:47:19.686Z,29.72
2018-08-03T07:58:51.889Z,29.83
2018-08-03T08:01:24.876Z,29.65
2018-08-03T08:04:00.752Z,29.76
2018-08-03T08:06:32.675Z,29.73
2018-08-03T08:09:06.779Z,29.78
2018-08-03T08:11:37.930Z,29.87
2018-08-03T08:14:10.460Z,29.65
2018-08-03T08:16:46.540Z,29.93
2018-08-03T08:19:18.016Z,30.01
2018-08-03T08:21:48.655Z,29.87
2018-08-03T08:24:25.430Z,29.66
2018-08-03T08:26:59.131Z,29.33
2018-08-03T08:29:37.060Z,29.23
2018-08-03T08:32:12.910Z,29.57
2018-08-03T08:34:49.815Z,29.27
2018-08-03T08:37:24.677Z,29.33
2018-08-03T08:39:57.147Z,29.48
2018-08-03T08:42:29.314Z,29.52
2018-08-03T08:45:00.890Z,29.57
2018-08-03T08:47:35.921Z,29.44
2018-08-03T08:50:10.119Z,29.57
2018-08-03T08:52:48.182Z,29.68
2018-08-03T08:55:20.893Z,29.53
2018-08-03T08:57:52.753Z,29.61
2018-08-03T09:00:32.492Z,29.57
2018-08-03T09:03:06.303Z,29.66
2018-08-03T09:05:40.841Z,29.51
2018-08-03T09:08:12.459Z,29.47
2018-08-03T09:10:45.802Z,29.58
2018-08-03T09:13:19.482Z,29.75
2018-08-03T09:15:53.634Z,29.89
2018-08-03T09:18:26.703Z,29.92
2018-08-03T09:21:00.488Z,29.82
2018-08-03T09:23:31.105Z,29.56
2018-08-03T09:26:04.034Z,29.85
2018-08-03T09:28:36.567Z,29.83
2018-08-03T09:31:08.626Z,29.84
2018-08-03T09:33:43.161Z,29.75
2018-08-03T09:36:17.113Z,29.46
2018-08-03T09:38:48.039Z,29.49
2018-08-03T09:41:20.097Z,29.77
2018-08-03T09:43:54.913Z,29.98
2018-08-03T09:46:34.111Z,30.08
2018-08-03T09:49:08.392Z,30.09
2018-08-03T09:51:41.202Z,29.93
2018-08-03T09:54:14.472Z,29.94
2018-08-03T09:56:49.931Z,29.91
2018-08-03T09:59:25.169Z,29.74
2018-08-03T10:01:57.619Z,30.00
2018-08-03T10:04:27.375Z,30.15
2018-08-03T10:06:58.400Z,30.26
2018-08-03T10:09:32.279Z,30.32
2018-08-03T10:12:08.621Z,30.52
2018-08-03T10:14:41.950Z,30.44
2018-08-03T10:17:23.469Z,30.13
2018-08-03T10:19:58.347Z,29.83
2018-08-03T10:22:30.525Z,29.91
2018-08-03T10:25:02.479Z,30.15
2018-08-03T10:27:37.667Z,30.30
2018-08-03T10:30:08.555Z,29.92
2018-08-03T10:32:43.484Z,30.03
2018-08-03T10:35:16.135Z,30.01
2018-08-03T10:37:47.608Z,30.31
2018-08-03T10:40:20.051Z,30.15
2018-08-03T10:42:56.977Z,30.04
2018-08-03T10:45:36.245Z,29.72
2018-08-03T10:48:20.500Z,30.38
2018-08-03T10:50:54.671Z,30.64
2018-08-03T10:53:25.638Z,30.86
2018-08-03T10:56:00.289Z,31.38
2018-08-03T10:58:34.834Z,31.78
2018-08-03T11:01:08.651Z,31.52
2018-08-03T11:03:42.915Z,31.34
2018-08-03T11:06:20.900Z,30.53
2018-08-03T11:08:53.630Z,30.65
2018-08-03T11:11:31.158Z,30.81
2018-08-03T11:14:07.296Z,30.49
2018-08-03T11:16:42.012Z,30.13
2018-08-03T11:19:13.654Z,30.51
2018-08-03T11:21:52.702Z,30.87
2018-08-03T11:24:29.614Z,30.82
2018-08-03T11:27:03.367Z,30.87
2018-08-03T11:29:35.989Z,31.44
2018-08-03T11:32:14.710Z,32.08
2018-08-03T11:34:47.119Z,31.45
2018-08-03T11:37:22.166Z,31.25
2018-08-03T11:39:57.588Z,30.78
2018-08-03T11:45:21.266Z,30.85
2018-08-03T11:47:54.271Z,30.97
2018-08-03T11:53:12.647Z,31.30
2018-08-03T11:55:47.341Z,30.83
2018-08-03T11:58:17.546Z,30.48
2018-08-03T12:00:49.583Z,30.37
2018-08-03T12:03:20.654Z,30.06
2018-08-03T12:05:58.354Z,30.48
2018-08-03T12:08:35.490Z,30.99
2018-08-03T12:11:09.016Z,31.22
2018-08-03T12:13:41.134Z,31.20
2018-08-03T12:16:12.360Z,31.64
2018-08-03T12:18:43.743Z,31.27
2018-08-03T12:21:15.630Z,31.65
2018-08-03T12:23:47.247Z,31.80
2018-08-03T12:26:19.697Z,30.99
2018-08-03T12:28:53.534Z,30.26
2018-08-03T12:31:23.966Z,29.86
2018-08-03T12:40:45.997Z,28.96
2018-08-03T12:43:26.044Z,28.86
2018-08-03T12:45:58.507Z,28.92
2018-08-03T12:48:34.892Z,28.99
2018-08-03T12:51:12.234Z,29.71
2018-08-03T12:53:46.725Z,30.55
2018-08-03T12:56:19.793Z,31.62
2018-08-03T12:58:54.153Z,32.92
2018-08-03T13:01:28.138Z,30.51
2018-08-03T13:04:06.846Z,29.65
2018-08-03T13:06:40.942Z,29.42
2018-08-03T13:09:12.900Z,29.16
2018-08-03T13:11:46.808Z,29.22
2018-08-03T13:14:25.168Z,29.10
2018-08-03T13:16:59.428Z,29.44
2018-08-03T13:19:33.681Z,29.97
2018-08-03T13:22:06.463Z,29.97
2018-08-03T13:24:44.680Z,30.04
2018-08-03T13:27:15.735Z,30.94
2018-08-03T13:29:49.345Z,31.56
2018-08-03T13:32:19.728Z,31.64
2018-08-03T13:34:55.121Z,30.57
2018-08-03T13:37:26.551Z,30.73
2018-08-03T13:39:59.325Z,30.57
2018-08-03T13:42:32.805Z,30.34
2018-08-03T13:45:09.478Z,30.34
2018-08-03T13:47:40.963Z,30.07
2018-08-03T13:50:13.404Z,29.96
2018-08-03T13:52:49.249Z,29.77
2018-08-03T13:55:22.746Z,29.61
2018-08-03T13:57:53.948Z,29.65
2018-08-03T14:00:26.725Z,29.67
2018-08-03T14:03:01.688Z,29.54
2018-08-03T14:05:35.045Z,29.72
2018-08-03T14:08:07.095Z,29.69
2018-08-03T14:10:41.590Z,29.73
2018-08-03T14:13:16.888Z,30.32
2018-08-03T14:15:55.570Z,31.03
2018-08-03T14:18:28.537Z,31.99
2018-08-03T14:21:01.817Z,31.15
2018-08-03T14:23:37.418Z,30.63
2018-08-03T14:26:19.337Z,31.26
2018-08-03T14:28:51.660Z,31.43
2018-08-03T14:31:22.566Z,30.64
2018-08-03T14:33:58.500Z,30.36
2018-08-03T14:36:33.669Z,30.21
2018-08-03T14:39:09.115Z,30.53
2018-08-03T14:41:41.952Z,30.44
2018-08-03T14:46:57.018Z,31.56
2018-08-03T14:49:32.912Z,31.06
2018-08-03T14:52:05.924Z,30.97
2018-08-03T14:54:39.132Z,30.67
2018-08-03T14:57:13.252Z,30.55
2018-08-03T14:59:48.868Z,31.18
2018-08-03T15:02:26.362Z,31.95
2018-08-03T15:05:05.073Z,32.32
2018-08-03T15:07:40.460Z,32.89
2018-08-03T15:10:16.276Z,32.19
2018-08-03T15:12:52.353Z,31.73
2018-08-03T15:15:28.059Z,31.50
2018-08-03T15:18:01.289Z,31.16
2018-08-03T15:20:40.116Z,30.70
2018-08-03T15:23:15.445Z,29.20
2018-08-03T15:25:56.200Z,29.42
2018-08-03T15:28:31.263Z,29.32
2018-08-03T15:31:01.943Z,29.32
2018-08-03T15:33:33.061Z,29.19
2018-08-03T15:36:08.918Z,29.03
2018-08-03T15:38:50.302Z,29.16
2018-08-03T15:41:27.066Z,29.10
2018-08-03T15:44:01.229Z,29.38
2018-08-03T15:46:35.969Z,29.98
2018-08-03T15:49:07.184Z,30.16
2018-08-03T15:51:41.941Z,30.09
2018-08-03T15:54:14.172Z,29.51
2018-08-03T15:56:48.854Z,29.07
2018-08-03T15:59:20.532Z,29.43
2018-08-03T16:01:52.335Z,29.05
2018-08-03T16:04:26.546Z,28.76
2018-08-03T16:07:00.132Z,28.66
2018-08-03T16:09:35.098Z,28.65
2018-08-03T16:12:07.971Z,28.06
2018-08-03T16:14:41.040Z,28.49
2018-08-03T16:17:15.134Z,28.45
2018-08-03T16:19:48.522Z,28.28
2018-08-03T16:22:21.778Z,28.76
2018-08-03T16:24:58.930Z,29.44
2018-08-03T16:27:34.407Z,29.86
2018-08-03T16:30:10.085Z,30.01
2018-08-03T16:32:41.846Z,29.89
2018-08-03T16:35:14.219Z,30.15
2018-08-03T16:37:47.172Z,30.19
2018-08-03T16:40:22.430Z,30.25
2018-08-03T16:42:59.581Z,29.90
2018-08-03T16:45:30.684Z,29.55
2018-08-03T16:48:06.393Z,29.15
2018-08-03T16:50:39.358Z,28.61
2018-08-03T16:53:15.810Z,28.22
2018-08-03T16:55:49.250Z,28.28
2018-08-03T16:58:22.452Z,28.13
2018-08-03T17:00:58.731Z,27.57
2018-08-03T17:03:36.764Z,27.80
2018-08-03T17:06:08.777Z,27.74
2018-08-03T17:08:41.620Z,27.64
2018-08-03T17:11:14.069Z,27.60
2018-08-03T17:13:45.866Z,27.13
2018-08-03T17:16:18.349Z,27.44
2018-08-03T17:18:50.726Z,27.29
2018-08-03T17:21:24.017Z,27.27
2018-08-03T17:23:54.571Z,27.12
2018-08-03T17:26:26.199Z,27.06
2018-08-03T17:29:04.311Z,26.95
2018-08-03T17:31:36.217Z,26.86
2018-08-03T17:34:08.988Z,26.75
2018-08-03T17:36:43.449Z,26.52
2018-08-03T17:39:15.311Z,26.29
2018-08-03T17:41:46.466Z,26.17
2018-08-03T17:44:20.130Z,26.20
2018-08-03T17:46:52.939Z,26.15
2018-08-03T17:49:25.820Z,26.02
2018-08-03T17:51:57.371Z,26.02
2018-08-03T17:54:29.779Z,25.84
2018-08-03T17:57:03.315Z,25.77
2018-08-03T17:59:34.990Z,25.75
2018-08-03T18:02:12.839Z,25.61
2018-08-03T18:04:46.980Z,25.50
2018-08-03T18:07:21.271Z,25.51
2018-08-03T18:09:55.813Z,25.47
2018-08-03T18:12:33.279Z,25.32
2018-08-03T18:15:06.206Z,25.17
2018-08-03T18:17:36.407Z,25.01
2018-08-03T18:20:13.294Z,25.01
2018-08-03T18:23:01.873Z,24.95
2018-08-03T18:25:34.709Z,24.98
2018-08-03T18:28:07.984Z,25.09
2018-08-03T18:30:39.151Z,25.05
2018-08-03T18:33:11.555Z,25.09
2018-08-03T18:35:44.484Z,25.08
2018-08-03T18:38:16.971Z,25.04
2018-08-03T18:40:49.665Z,25.08
2018-08-03T18:43:30.844Z,25.11
2018-08-03T18:46:04.517Z,24.69
2018-08-03T18:48:36.265Z,25.00
2018-08-03T18:51:13.624Z,25.00
2018-08-03T18:53:47.440Z,25.05
2018-08-03T18:56:20.475Z,25.05
2018-08-03T18:58:55.618Z,25.04
2018-08-03T19:01:32.353Z,25.05
2018-08-03T19:04:04.542Z,25.05
2018-08-03T19:06:39.516Z,25.03
2018-08-03T19:09:15.772Z,25.05
2018-08-03T19:11:49.941Z,25.07
2018-08-03T19:14:21.724Z,25.14
2018-08-03T19:16:56.205Z,25.12
2018-08-03T19:19:28.395Z,25.13
2018-08-03T19:21:58.195Z,25.06
2018-08-03T19:24:36.038Z,24.99
2018-08-03T19:27:11.966Z,25.03
2018-08-03T19:29:52.482Z,25.05
2018-08-03T19:32:23.175Z,25.02
2018-08-03T19:34:58.354Z,24.67
2018-08-03T19:37:31.128Z,24.91
2018-08-03T19:40:07.263Z,24.93
2018-08-03T19:42:44.239Z,24.84
2018-08-03T19:45:26.822Z,24.80
2018-08-03T19:47:59.974Z,24.70
2018-08-03T19:50:46.348Z,24.67
2018-08-03T19:53:17.986Z,24.58
2018-08-03T19:55:52.618Z,24.56
2018-08-03T19:58:30.547Z,24.53
2018-08-03T20:01:01.639Z,24.57
2018-08-03T20:03:35.241Z,24.60
2018-08-03T20:08:52.122Z,24.41
2018-08-03T20:11:25.307Z,24.28
2018-08-03T20:13:57.613Z,24.27
2018-08-03T20:16:33.554Z,24.27
2018-08-03T20:19:04.161Z,24.27
2018-08-03T20:21:34.688Z,24.13
2018-08-03T20:24:11.000Z,24.01
2018-08-03T20:26:43.392Z,24.01
2018-08-03T20:29:15.793Z,23.93
2018-08-03T20:31:48.627Z,23.94
2018-08-03T20:34:21.868Z,23.95
2018-08-03T20:36:56.678Z,24.00
2018-08-03T20:39:30.412Z,24.06
2018-08-03T20:42:04.727Z,23.97
2018-08-03T20:44:36.772Z,23.91
2018-08-03T20:47:07.412Z,23.95
2018-08-03T20:49:41.742Z,23.93
2018-08-03T20:52:15.417Z,23.96
2018-08-03T20:54:49.590Z,23.91
2018-08-03T20:57:24.344Z,23.89
2018-08-03T20:59:56.747Z,23.81
2018-08-03T21:02:28.095Z,23.66
2018-08-03T21:05:00.994Z,23.53
2018-08-03T21:07:32.301Z,23.44
2018-08-03T21:10:06.106Z,23.31
2018-08-03T21:12:40.323Z,23.32
2018-08-03T21:15:15.006Z,23.27
2018-08-03T21:17:45.727Z,23.25
2018-08-03T21:20:16.489Z,23.35
2018-08-03T21:22:50.601Z,23.37
2018-08-03T21:25:20.859Z,23.46
2018-08-03T21:27:54.512Z,23.62
2018-08-03T21:30:26.036Z,23.81
2018-08-03T21:32:59.006Z,23.68
2018-08-03T21:35:32.847Z,23.67
2018-08-03T21:38:04.417Z,23.73
2018-08-03T21:40:41.788Z,23.69
2018-08-03T21:43:15.866Z,23.73
2018-08-03T21:45:47.108Z,23.78
2018-08-03T21:48:21.223Z,23.74
2018-08-03T21:50:51.823Z,23.72
2018-08-03T21:53:25.425Z,23.60
2018-08-03T21:55:58.399Z,23.46
2018-08-03T21:58:31.052Z,22.80
2018-08-03T22:01:08.069Z,23.35
2018-08-03T22:03:41.666Z,23.30
2018-08-03T22:06:15.505Z,23.30
2018-08-03T22:08:49.010Z,23.37
2018-08-03T22:11:20.663Z,23.48
2018-08-03T22:14:04.679Z,23.52
2018-08-03T22:16:37.602Z,23.64
2018-08-03T22:19:09.147Z,23.62
2018-08-03T22:21:38.507Z,23.64
2018-08-03T22:24:09.130Z,23.65
2018-08-03T22:26:44.643Z,23.64
2018-08-03T22:29:20.438Z,23.51
2018-08-03T22:31:54.149Z,23.41
2018-08-03T22:34:27.767Z,23.42
2018-08-03T22:37:03.760Z,23.33
2018-08-03T22:39:33.701Z,23.26
2018-08-03T22:42:04.833Z,23.28
2018-08-03T22:44:37.777Z,23.40
2018-08-03T22:47:11.115Z,23.31
2018-08-03T22:50:12.595Z,23.31
2018-08-03T22:52:48.151Z,23.10
2018-08-03T22:55:24.480Z,23.08
2018-08-03T22:57:54.558Z,23.02
2018-08-03T23:00:33.828Z,22.98
2018-08-03T23:03:09.251Z,23.01
2018-08-03T23:05:44.811Z,23.03
2018-08-03T23:08:17.441Z,22.97
2018-08-03T23:10:51.894Z,22.92
2018-08-03T23:13:29.064Z,22.92
2018-08-03T23:16:03.443Z,22.82
2018-08-03T23:18:45.941Z,22.79
2018-08-03T23:21:16.874Z,22.72
2018-08-03T23:23:50.671Z,22.73
2018-08-03T23:26:23.255Z,22.76
2018-08-03T23:31:38.877Z,22.55
2018-08-03T23:34:16.590Z,22.56
2018-08-03T23:36:47.696Z,22.58
2018-08-03T23:39:24.647Z,22.72
2018-08-03T23:42:00.482Z,22.70
2018-08-03T23:44:32.108Z,22.78
2018-08-03T23:47:03.610Z,22.63
2018-08-03T23:49:37.317Z,22.60
2018-08-03T23:52:07.823Z,22.66
2018-08-03T23:54:39.241Z,22.64
2018-08-03T23:57:13.826Z,22.77
2018-08-03T23:59:44.275Z,22.09
